Time;durP1;ratioP1;P1;durP2;ratioP2;P2;SDS_P1;SDS_P2;PMS_P1;PMS_P2;Temp;Humidity;BMP_temperature;BMP_pressure;BME280_temperature;BME280_humidity;BME280_pressure;Samples;Min_cycle;Max_cycle;Signal;HPM_P1;HPM_P2
2021/09/22 00:02:18;;;;;;;25.20;6.03;;;;;;;11.79;87.00;102826.03;4956448;28;20217;-81
2021/09/22 00:04:43;;;;;;;23.80;6.17;;;;;;;11.82;86.86;102828.75;4974468;28;20223;-80
2021/09/22 00:07:08;;;;;;;27.77;6.83;;;;;;;11.80;87.19;102818.41;4973929;28;20192;-81
2021/09/22 00:09:34;;;;;;;21.63;6.27;;;;;;;11.77;87.16;102831.13;5006530;28;20207;-79
2021/09/22 00:11:59;;;;;;;21.37;5.90;;;;;;;11.77;86.75;102833.69;4954245;28;20225;-81
2021/09/22 00:14:25;;;;;;;17.67;6.20;;;;;;;11.77;86.35;102826.00;4971264;28;20193;-83
2021/09/22 00:16:50;;;;;;;24.70;5.57;;;;;;;11.78;86.04;102827.75;4967320;28;20203;-80
2021/09/22 00:19:16;;;;;;;19.30;6.27;;;;;;;11.77;86.26;102826.00;4974443;28;20259;-79
2021/09/22 00:21:41;;;;;;;22.67;6.40;;;;;;;11.74;86.00;102835.22;4974725;28;20219;-81
2021/09/22 00:24:07;;;;;;;23.03;6.10;;;;;;;11.73;85.72;102833.47;5006710;28;20196;-81
2021/09/22 00:26:32;;;;;;;16.77;5.40;;;;;;;11.73;85.78;102828.31;4972781;28;20196;-81
2021/09/22 00:28:58;;;;;;;23.23;6.23;;;;;;;11.71;86.06;102833.38;4974351;28;20204;-82
2021/09/22 00:31:23;;;;;;;15.93;5.50;;;;;;;11.70;85.98;102828.19;4980591;28;20225;-82
2021/09/22 00:33:49;;;;;;;19.27;5.07;;;;;;;11.68;85.58;102830.69;4974726;28;20189;-80
2021/09/22 00:36:14;;;;;;;18.37;6.07;;;;;;;11.66;86.60;102836.56;4973684;28;20649;-82
2021/09/22 00:38:40;;;;;;;18.30;5.73;;;;;;;11.65;86.68;102833.09;4974899;28;20205;-81
2021/09/22 00:41:05;;;;;;;17.77;5.07;;;;;;;11.58;86.45;102827.59;4957870;28;20581;-80
2021/09/22 00:43:31;;;;;;;18.50;4.60;;;;;;;11.55;86.38;102830.88;4959201;28;20358;-81
2021/09/22 00:46:00;;;;;;;19.67;5.90;;;;;;;11.60;86.54;102834.56;4975106;28;20189;-81
2021/09/22 00:48:26;;;;;;;23.27;5.67;;;;;;;11.57;85.78;102833.53;4977495;28;20679;-81
2021/09/22 00:50:55;;;;;;;21.13;5.53;;;;;;;11.56;85.92;102826.66;4975787;28;20232;-80
2021/09/22 00:53:21;;;;;;;23.40;6.20;;;;;;;11.57;86.36;102824.13;4975331;28;20693;-81
2021/09/22 00:55:48;;;;;;;12.87;5.10;;;;;;;11.53;86.52;102835.03;4979257;28;20259;-80
2021/09/22 00:58:13;;;;;;;21.33;6.03;;;;;;;11.56;86.46;102829.22;4960086;28;20189;-81
2021/09/22 01:00:38;;;;;;;17.97;5.53;;;;;;;11.56;86.72;102827.50;4973923;28;20216;-80
2021/09/22 01:03:05;;;;;;;16.40;5.43;;;;;;;11.54;86.67;102828.25;5000689;28;20275;-80
2021/09/22 01:05:31;;;;;;;23.23;6.43;;;;;;;11.57;86.37;102838.66;4995035;28;20193;-78
2021/09/22 01:07:57;;;;;;;18.33;5.70;;;;;;;11.50;86.68;102834.91;4992520;28;20195;-81
2021/09/22 01:10:22;;;;;;;18.17;5.80;;;;;;;11.52;86.25;102832.44;4966064;28;20187;-80
2021/09/22 01:12:48;;;;;;;20.53;5.80;;;;;;;11.52;86.28;102829.88;4990765;28;20527;-80
2021/09/22 01:15:34;;;;;;;19.07;6.10;;;;;;;11.52;86.31;102833.28;4967687;28;20611;-80
2021/09/22 01:18:00;;;;;;;15.30;5.60;;;;;;;11.52;85.99;102833.28;4981565;28;20669;-81
2021/09/22 01:20:29;;;;;;;19.23;4.93;;;;;;;11.51;86.24;102828.97;4977659;28;20263;-79
2021/09/22 01:22:57;;;;;;;25.97;5.97;;;;;;;11.46;86.71;102830.44;4975860;28;20613;-79
2021/09/22 01:25:23;;;;;;;19.43;6.17;;;;;;;11.48;86.20;102833.09;4960961;28;20581;-79
2021/09/22 01:27:52;;;;;;;17.83;4.93;;;;;;;11.47;86.23;102837.34;4961589;28;20213;-80
2021/09/22 01:30:20;;;;;;;17.33;5.40;;;;;;;11.47;86.08;102829.63;4987704;28;20228;-80
2021/09/22 01:32:54;;;;;;;18.17;6.23;;;;;;;11.50;86.85;102828.91;4979319;28;20315;-79
2021/09/22 01:35:22;;;;;;;17.53;6.27;;;;;;;11.44;87.03;102831.19;4997111;28;20250;-80
2021/09/22 01:38:03;;;;;;;18.90;5.23;;;;;;;11.40;87.10;102834.41;4985288;28;20180;-80
2021/09/22 01:41:02;;;;;;;18.33;5.50;;;;;;;11.37;86.68;102836.81;4986641;28;20238;-80
2021/09/22 01:43:31;;;;;;;16.87;5.93;;;;;;;11.29;86.36;102836.44;4999259;28;20195;-79
2021/09/22 01:45:58;;;;;;;19.93;6.43;;;;;;;11.30;86.45;102834.78;5018802;28;20190;-80
2021/09/22 01:48:23;;;;;;;18.30;5.07;;;;;;;11.22;86.06;102831.84;4980092;28;20548;-80
2021/09/22 01:50:56;;;;;;;18.57;5.47;;;;;;;11.19;85.82;102833.34;4999318;28;20202;-81
2021/09/22 01:53:22;;;;;;;17.43;5.50;;;;;;;11.16;85.92;102828.09;4984573;28;20209;-80
2021/09/22 01:55:48;;;;;;;15.97;5.27;;;;;;;11.18;85.79;102818.78;4980646;28;20254;-79
2021/09/22 01:58:15;;;;;;;15.97;5.17;;;;;;;11.10;86.23;102826.09;4975025;28;20225;-79
2021/09/22 02:00:51;;;;;;;13.07;4.40;;;;;;;11.09;85.70;102820.91;4977916;28;20200;-79
2021/09/22 02:03:28;;;;;;;16.60;4.87;;;;;;;11.06;85.68;102823.34;4966089;28;20271;-79
2021/09/22 02:06:00;;;;;;;17.67;4.83;;;;;;;10.96;85.64;102821.13;4946220;29;20186;-80
2021/09/22 02:08:26;;;;;;;14.43;4.87;;;;;;;10.95;85.38;102812.53;4963021;28;20189;-79
2021/09/22 02:10:59;;;;;;;13.80;4.63;;;;;;;10.92;85.01;102816.66;4980336;28;20252;-80
2021/09/22 02:13:24;;;;;;;17.47;4.60;;;;;;;10.87;84.98;102826.66;4982445;28;20205;-80
2021/09/22 02:15:50;;;;;;;17.53;5.70;;;;;;;10.87;85.30;102818.97;4978182;28;20615;-80
2021/09/22 02:18:42;;;;;;;17.60;5.40;;;;;;;10.87;85.45;102815.53;4983492;28;20252;-79
2021/09/22 02:21:11;;;;;;;20.37;5.30;;;;;;;10.89;85.80;102813.91;4961569;28;20213;-80
2021/09/22 02:23:39;;;;;;;18.27;5.53;;;;;;;10.84;86.39;102815.38;4944934;29;20186;-80
2021/09/22 02:26:06;;;;;;;22.63;5.67;;;;;;;10.82;86.62;102824.66;4961033;28;20189;-80
2021/09/22 02:28:36;;;;;;;18.47;5.63;;;;;;;10.80;86.44;102816.91;4961713;29;20227;-80
2021/09/22 02:31:02;;;;;;;18.83;6.23;;;;;;;10.82;86.69;102817.84;4993778;28;20213;-80
2021/09/22 02:33:37;;;;;;;17.60;5.53;;;;;;;10.80;86.34;102811.78;4989439;28;20192;-80
2021/09/22 02:36:03;;;;;;;20.77;6.27;;;;;;;10.78;86.00;102817.66;4975850;28;20195;-80
2021/09/22 02:38:39;;;;;;;22.97;6.73;;;;;;;10.79;86.77;102807.44;4985773;28;20259;-79
2021/09/22 02:41:04;;;;;;;23.17;6.97;;;;;;;10.82;87.41;102809.28;4985452;28;20717;-80
2021/09/22 02:43:29;;;;;;;21.47;5.77;;;;;;;10.78;86.93;102818.50;4964474;28;20220;-81
2021/09/22 02:45:55;;;;;;;20.80;6.17;;;;;;;10.79;87.61;102816.84;4963189;28;20259;-81
2021/09/22 02:48:31;;;;;;;20.53;6.43;;;;;;;10.79;87.94;102820.25;4963745;28;20188;-80
2021/09/22 02:50:57;;;;;;;17.80;5.60;;;;;;;10.71;87.41;102810.44;4967150;28;20213;-80
2021/09/22 02:53:23;;;;;;;17.17;5.40;;;;;;;10.71;86.90;102813.00;4960388;29;20256;-80
2021/09/22 02:55:49;;;;;;;17.17;5.60;;;;;;;10.70;86.50;102803.56;4979296;28;20263;-80
2021/09/22 02:58:16;;;;;;;20.50;6.30;;;;;;;10.69;86.09;102815.47;4979378;28;20197;-80
2021/09/22 03:00:47;;;;;;;18.20;5.57;;;;;;;10.71;86.39;102813.88;4980230;28;20204;-78
2021/09/22 03:03:13;;;;;;;20.50;5.10;;;;;;;10.83;87.55;102823.88;4980215;28;20212;-79
2021/09/22 03:05:39;;;;;;;26.00;6.23;;;;;;;10.92;88.72;102829.47;4978063;28;20207;-80
2021/09/22 03:08:04;;;;;;;23.90;5.30;;;;;;;10.94;89.00;102825.28;4979534;28;20188;-80
2021/09/22 03:10:30;;;;;;;26.63;5.57;;;;;;;10.94;89.31;102826.16;4978525;28;20217;-80
2021/09/22 03:12:55;;;;;;;21.27;5.47;;;;;;;10.93;89.13;102826.09;4982155;28;20258;-80
2021/09/22 03:15:21;;;;;;;18.00;4.63;;;;;;;10.94;88.41;102822.72;4983151;28;21464;-81
2021/09/22 03:17:47;;;;;;;20.30;4.70;;;;;;;10.92;88.70;102814.94;4972872;28;20196;-80
2021/09/22 03:20:12;;;;;;;17.70;5.27;;;;;;;10.90;88.79;102814.00;4975302;28;20216;-80
2021/09/22 03:22:37;;;;;;;21.37;4.80;;;;;;;10.90;88.66;102811.44;4972130;28;20173;-80
2021/09/22 03:25:12;;;;;;;20.70;5.17;;;;;;;10.86;88.11;102806.97;4962204;28;20180;-81
2021/09/22 03:27:38;;;;;;;12.60;3.73;;;;;;;10.83;88.16;102803.38;4964095;28;20270;-81
2021/09/22 03:30:07;;;;;;;18.93;4.67;;;;;;;10.81;87.82;102808.41;4973961;28;20188;-80
2021/09/22 03:32:35;;;;;;;17.77;5.10;;;;;;;10.82;87.84;102809.28;4996599;28;20296;-81
2021/09/22 03:35:01;;;;;;;17.53;4.13;;;;;;;10.73;87.65;102802.03;4994017;28;20828;-80
2021/09/22 03:37:27;;;;;;;18.33;4.70;;;;;;;10.71;87.51;102798.53;5010547;28;20232;-81
2021/09/22 03:39:52;;;;;;;21.10;5.03;;;;;;;10.69;87.11;102800.09;4978319;28;20188;-80
2021/09/22 03:42:18;;;;;;;15.47;4.50;;;;;;;10.62;86.85;102797.16;5002551;28;20207;-80
2021/09/22 03:44:43;;;;;;;13.23;3.90;;;;;;;10.63;86.92;102796.34;4981130;28;20180;-80
2021/09/22 03:47:09;;;;;;;15.13;4.40;;;;;;;10.61;86.89;102804.00;4997784;28;20691;-80
2021/09/22 03:49:35;;;;;;;12.73;4.13;;;;;;;10.56;86.75;102809.66;4975895;28;20569;-79
2021/09/22 03:52:12;;;;;;;15.83;4.23;;;;;;;10.56;86.89;102809.66;4986604;28;20332;-80
2021/09/22 03:54:37;;;;;;;14.87;4.43;;;;;;;10.55;86.38;102801.09;4997828;28;20199;-79
2021/09/22 03:57:03;;;;;;;15.00;4.40;;;;;;;10.55;86.14;102807.91;4995479;28;20195;-79
2021/09/22 03:59:28;;;;;;;18.03;4.10;;;;;;;10.53;86.96;102805.28;4978958;28;20183;-79
2021/09/22 04:01:54;;;;;;;13.10;3.83;;;;;;;10.44;86.50;102799.69;4996252;28;20204;-80
2021/09/22 04:04:19;;;;;;;16.50;3.83;;;;;;;10.43;86.50;102808.19;4993166;28;20223;-80
2021/09/22 04:06:45;;;;;;;12.57;3.67;;;;;;;10.38;86.68;102812.19;4993951;28;20184;-80
2021/09/22 04:09:14;;;;;;;15.63;4.23;;;;;;;10.36;86.73;102818.00;4993718;28;20188;-80
2021/09/22 04:11:39;;;;;;;10.70;3.70;;;;;;;10.32;86.40;102818.66;4979203;28;20208;-80
2021/09/22 04:14:05;;;;;;;18.10;3.97;;;;;;;10.37;86.52;102817.22;5004258;28;20254;-80
2021/09/22 04:16:30;;;;;;;22.50;4.63;;;;;;;10.38;86.35;102818.97;4999401;28;20183;-81
2021/09/22 04:18:55;;;;;;;12.57;3.40;;;;;;;10.28;86.61;102825.28;5017886;28;20314;-80
2021/09/22 04:21:21;;;;;;;12.57;4.10;;;;;;;10.35;87.17;102819.69;4993034;28;20209;-81
2021/09/22 04:23:47;;;;;;;12.87;4.50;;;;;;;10.39;86.81;102819.06;4978794;28;20845;-80
2021/09/22 04:26:12;;;;;;;17.33;4.43;;;;;;;10.39;87.04;102818.16;4978283;28;20279;-79
2021/09/22 04:28:39;;;;;;;15.00;4.60;;;;;;;10.41;87.22;102814.03;4978631;28;20263;-80
2021/09/22 04:31:23;;;;;;;14.97;4.47;;;;;;;10.39;87.58;102824.19;4978223;28;20652;-81
2021/09/22 04:34:07;;;;;;;14.83;3.97;;;;;;;10.31;87.48;102817.78;4979572;28;20223;-80
2021/09/22 04:36:51;;;;;;;15.57;4.53;;;;;;;10.20;87.69;102812.88;4978880;28;20198;-81
2021/09/22 04:39:35;;;;;;;13.60;3.80;;;;;;;10.23;87.31;102810.50;4996384;28;20259;-80
2021/09/22 04:42:19;;;;;;;9.60;3.97;;;;;;;10.23;86.93;102807.94;5010007;28;20237;-79
2021/09/22 04:45:05;;;;;;;15.70;4.87;;;;;;;10.20;86.99;102803.53;5017344;28;20893;-78
2021/09/22 04:47:49;;;;;;;12.90;4.17;;;;;;;10.16;86.75;102808.41;5015667;28;20245;-80
2021/09/22 04:50:33;;;;;;;10.40;3.83;;;;;;;10.18;86.93;102807.69;5015203;28;20230;-79
2021/09/22 04:53:17;;;;;;;13.57;4.60;;;;;;;10.19;86.28;102808.56;4996710;28;20214;-80
2021/09/22 04:56:01;;;;;;;11.27;4.00;;;;;;;10.21;86.86;102812.09;4993673;28;20229;-80
2021/09/22 04:58:46;;;;;;;10.63;4.13;;;;;;;10.17;87.31;102808.50;4996507;28;20179;-80
2021/09/22 05:01:34;;;;;;;7.97;3.90;;;;;;;10.10;87.38;102806.41;5012532;28;20216;-79
2021/09/22 05:04:18;;;;;;;13.77;4.13;;;;;;;10.10;86.78;102803.84;4997762;28;20183;-79
2021/09/22 05:07:02;;;;;;;8.47;3.60;;;;;;;10.09;87.13;102809.75;4997924;28;20182;-80
2021/09/22 05:09:46;;;;;;;12.40;3.50;;;;;;;10.02;86.30;102814.44;4998357;28;20757;-79
2021/09/22 05:12:30;;;;;;;9.23;3.23;;;;;;;10.04;85.71;102826.56;4996678;28;20599;-80
2021/09/22 05:15:19;;;;;;;8.70;3.70;;;;;;;10.05;86.61;102827.44;4995692;28;20340;-79
2021/09/22 05:18:03;;;;;;;9.70;3.37;;;;;;;10.04;86.75;102834.22;5033127;28;20585;-79
2021/09/22 05:20:47;;;;;;;9.70;3.77;;;;;;;10.02;86.49;102835.81;5002600;28;20865;-79
2021/09/22 05:23:31;;;;;;;12.33;3.50;;;;;;;10.06;86.64;102837.78;5002002;28;20254;-80
2021/09/22 05:26:14;;;;;;;10.93;3.87;;;;;;;10.11;86.98;102828.66;5002069;28;20182;-80
2021/09/22 05:28:58;;;;;;;7.67;3.77;;;;;;;10.12;87.00;102832.97;4988038;28;20207;-79
2021/09/22 05:31:59;;;;;;;7.40;3.60;;;;;;;10.19;86.78;102837.59;5000306;28;20298;-80
2021/09/22 05:34:43;;;;;;;11.07;4.37;;;;;;;10.17;87.56;102836.66;4985067;28;20202;-81
2021/09/22 05:37:29;;;;;;;8.37;3.33;;;;;;;10.25;86.85;102843.06;4981471;28;20203;-78
2021/09/22 05:40:13;;;;;;;9.13;4.00;;;;;;;10.34;87.07;102845.22;4980545;28;20184;-80
2021/09/22 05:42:58;;;;;;;13.40;4.40;;;;;;;10.41;87.12;102855.00;5000359;28;20268;-78
2021/09/22 05:45:49;;;;;;;8.83;4.30;;;;;;;10.46;87.72;102854.41;4998573;28;20258;-79
2021/09/22 05:48:33;;;;;;;9.57;4.60;;;;;;;10.53;88.06;102856.50;4982227;28;20183;-79
2021/09/22 05:51:17;;;;;;;7.60;4.10;;;;;;;10.59;87.88;102854.25;5007576;28;20226;-80
2021/09/22 05:54:01;;;;;;;8.77;4.00;;;;;;;10.64;88.08;102852.81;5021540;28;20627;-80
2021/09/22 05:56:45;;;;;;;10.87;4.20;;;;;;;10.65;88.13;102848.56;5017602;28;20202;-79
2021/09/22 05:59:30;;;;;;;9.87;3.20;;;;;;;10.71;87.90;102844.63;5012619;28;20282;-80
2021/09/22 06:02:13;;;;;;;6.90;2.50;;;;;;;10.76;87.69;102847.41;5021153;28;20269;-79
2021/09/22 06:05:11;;;;;;;7.63;2.90;;;;;;;10.76;87.56;102856.00;4990322;28;20291;-80
2021/09/22 06:07:55;;;;;;;8.47;3.07;;;;;;;10.82;87.90;102848.59;5000421;28;20226;-80
2021/09/22 06:10:39;;;;;;;7.50;2.53;;;;;;;10.85;87.64;102850.44;4996498;28;20243;-79
2021/09/22 06:13:19;;;;;;;8.57;3.00;;;;;;;10.91;87.50;102854.19;4979134;28;20343;-80
2021/09/22 06:15:47;;;;;;;6.50;3.07;;;;;;;11.03;87.14;102869.31;4980242;28;20197;-80
2021/09/22 06:18:12;;;;;;;11.73;3.50;;;;;;;11.13;87.39;102854.47;4997571;28;20728;-80
2021/09/22 06:20:38;;;;;;;8.40;3.70;;;;;;;11.17;87.32;102850.38;4998120;28;20204;-80
2021/09/22 06:23:03;;;;;;;11.00;3.97;;;;;;;11.22;87.26;102849.78;4998314;28;20228;-80
2021/09/22 06:25:30;;;;;;;9.97;3.57;;;;;;;11.26;87.05;102845.69;4996601;28;20192;-78
2021/09/22 06:27:56;;;;;;;10.03;4.07;;;;;;;11.38;87.51;102847.16;4993526;28;20191;-80
2021/09/22 06:30:21;;;;;;;10.93;3.90;;;;;;;11.43;87.22;102845.69;5008675;28;20201;-80
2021/09/22 06:32:49;;;;;;;13.87;3.97;;;;;;;11.46;87.13;102850.97;4989426;28;20252;-80
2021/09/22 06:35:37;;;;;;;10.37;3.93;;;;;;;11.59;86.99;102863.63;5013146;28;20185;-80
2021/09/22 06:38:07;;;;;;;14.47;4.27;;;;;;;11.64;87.43;102862.16;5007669;28;20192;-80
2021/09/22 06:40:38;;;;;;;13.07;3.90;;;;;;;11.71;87.07;102861.63;4998931;28;20204;-79
2021/09/22 06:43:05;;;;;;;14.23;4.30;;;;;;;11.79;86.62;102857.72;4998705;28;20223;-80
2021/09/22 06:45:31;;;;;;;13.17;3.87;;;;;;;11.92;86.44;102849.78;5031888;28;20180;-78
2021/09/22 06:47:56;;;;;;;11.97;3.90;;;;;;;12.09;86.36;102851.44;4999947;28;20246;-80
2021/09/22 06:50:22;;;;;;;10.53;4.07;;;;;;;12.20;86.33;102852.81;5001273;28;20232;-80
2021/09/22 06:52:48;;;;;;;11.70;4.17;;;;;;;12.16;86.23;102853.47;5013934;28;20645;-79
2021/09/22 06:55:13;;;;;;;12.90;4.17;;;;;;;12.24;86.48;102864.97;4993353;28;20192;-79
2021/09/22 06:57:39;;;;;;;15.77;4.50;;;;;;;12.35;86.11;102866.31;4999067;28;20672;-80
2021/09/22 07:00:09;;;;;;;11.50;3.53;;;;;;;12.38;86.15;102863.00;4987999;28;20192;-79
2021/09/22 07:02:34;;;;;;;12.57;3.83;;;;;;;12.50;85.83;102859.28;5003269;28;20255;-79
2021/09/22 07:04:59;;;;;;;14.50;4.37;;;;;;;12.69;85.73;102861.88;4994264;28;20199;-80
2021/09/22 07:07:25;;;;;;;14.10;4.43;;;;;;;12.76;85.80;102858.72;4987825;28;20208;-80
2021/09/22 07:09:50;;;;;;;14.73;4.73;;;;;;;12.71;85.96;102854.19;5002616;28;20207;-80
2021/09/22 07:12:15;;;;;;;17.73;4.93;;;;;;;12.73;86.24;102855.16;4988107;28;20207;-79
2021/09/22 07:14:41;;;;;;;15.53;5.10;;;;;;;12.90;86.55;102857.63;4981635;28;20211;-80
2021/09/22 07:17:06;;;;;;;13.57;5.10;;;;;;;13.09;85.81;102858.41;5001708;28;20732;-80
2021/09/22 07:19:31;;;;;;;16.00;5.17;;;;;;;12.99;86.41;102856.28;5001033;28;20208;-80
2021/09/22 07:22:00;;;;;;;16.03;5.80;;;;;;;13.41;85.36;102847.75;4990447;28;20242;-79
2021/09/22 07:24:26;;;;;;;14.43;5.87;;;;;;;13.83;84.06;102849.44;4987786;28;20211;-80
2021/09/22 07:26:51;;;;;;;14.50;5.97;;;;;;;14.10;83.05;102845.31;4987054;28;20251;-79
2021/09/22 07:29:16;;;;;;;15.97;6.50;;;;;;;14.36;83.23;102850.63;5005840;28;20208;-79
2021/09/22 07:31:42;;;;;;;16.03;6.80;;;;;;;14.34;83.39;102854.88;4988582;28;20262;-79
2021/09/22 07:34:07;;;;;;;15.87;8.00;;;;;;;14.20;83.27;102856.06;5000103;28;20219;-79
2021/09/22 07:36:34;;;;;;;19.20;7.97;;;;;;;14.29;83.75;102852.94;5014746;28;20187;-78
2021/09/22 07:38:59;;;;;;;15.50;7.37;;;;;;;14.50;84.00;102858.88;5011637;28;20196;-79
2021/09/22 07:41:25;;;;;;;18.07;7.20;;;;;;;14.95;82.61;102850.13;5001888;28;20730;-79
2021/09/22 07:43:50;;;;;;;17.50;7.50;;;;;;;14.97;80.84;102848.50;4969244;28;20608;-80
2021/09/22 07:46:16;;;;;;;11.80;7.50;;;;;;;15.03;80.01;102848.69;5001600;28;20196;-80
2021/09/22 07:48:41;;;;;;;16.00;7.73;;;;;;;15.19;79.36;102845.81;4974931;28;20196;-80
2021/09/22 07:51:06;;;;;;;13.63;7.50;;;;;;;14.95;79.69;102848.44;4985562;28;20279;-79
2021/09/22 07:53:32;;;;;;;14.73;7.40;;;;;;;15.22;79.13;102840.72;4992511;28;20188;-80
2021/09/22 07:55:57;;;;;;;10.47;6.90;;;;;;;15.25;78.34;102849.47;4987495;28;20195;-79
2021/09/22 07:58:22;;;;;;;16.33;9.07;;;;;;;15.14;78.77;102842.22;5000770;28;20192;-78
2021/09/22 08:00:48;;;;;;;12.37;8.10;;;;;;;15.19;78.51;102838.06;5001623;28;20227;-80
2021/09/22 08:03:13;;;;;;;16.30;8.33;;;;;;;15.46;79.09;102831.22;5001936;28;20246;-79
2021/09/22 08:05:39;;;;;;;12.00;7.73;;;;;;;15.94;76.98;102837.91;4999201;28;20207;-80
2021/09/22 08:08:08;;;;;;;12.03;6.97;;;;;;;15.97;76.89;102836.28;4994587;28;20250;-78
2021/09/22 08:10:35;;;;;;;16.10;7.63;;;;;;;16.30;75.28;102831.22;5027973;28;20747;-81
2021/09/22 08:13:02;;;;;;;13.93;6.77;;;;;;;16.51;74.87;102829.22;4994480;28;20211;-80
2021/09/22 08:15:27;;;;;;;11.13;6.30;;;;;;;16.78;74.33;102825.69;4994824;28;20210;-80
2021/09/22 08:17:52;;;;;;;13.57;6.00;;;;;;;16.90;73.16;102822.53;4994608;28;20703;-80
2021/09/22 08:20:18;;;;;;;15.07;6.27;;;;;;;17.16;73.51;102826.63;4993681;28;20582;-81
2021/09/22 08:22:45;;;;;;;11.90;6.07;;;;;;;17.44;72.51;102814.41;4993534;28;20188;-80
2021/09/22 08:25:11;;;;;;;11.30;6.27;;;;;;;17.72;71.36;102816.75;4994091;28;20188;-80
2021/09/22 08:27:37;;;;;;;9.87;5.70;;;;;;;17.68;70.34;102819.28;4976815;28;20279;-80
2021/09/22 08:30:04;;;;;;;11.43;5.47;;;;;;;17.88;69.71;102816.28;4993629;28;20231;-79
2021/09/22 08:32:30;;;;;;;12.80;5.50;;;;;;;17.94;71.20;102813.78;4971872;28;20256;-80
2021/09/22 08:34:55;;;;;;;12.03;5.80;;;;;;;18.50;69.35;102814.94;4983389;28;20207;-80
2021/09/22 08:37:20;;;;;;;10.23;4.90;;;;;;;18.99;67.98;102807.19;4965180;28;20606;-79
2021/09/22 08:39:46;;;;;;;11.27;4.90;;;;;;;19.19;67.08;102811.84;4975266;28;20631;-80
2021/09/22 08:42:11;;;;;;;11.07;4.83;;;;;;;19.04;67.14;102805.53;4978446;28;20219;-80
2021/09/22 08:44:37;;;;;;;11.33;5.23;;;;;;;19.12;66.63;102807.38;5002916;28;20301;-80
2021/09/22 08:47:02;;;;;;;11.00;4.63;;;;;;;19.01;66.58;102808.06;5011929;28;20691;-81
2021/09/22 08:49:27;;;;;;;10.20;4.93;;;;;;;19.18;66.09;102802.31;5003606;28;20214;-80
2021/09/22 08:51:53;;;;;;;13.87;5.17;;;;;;;19.29;65.96;102800.78;5008667;28;20292;-78
2021/09/22 08:54:18;;;;;;;10.23;4.33;;;;;;;20.03;64.67;102794.88;4996926;28;20208;-81
2021/09/22 08:56:45;;;;;;;11.43;4.57;;;;;;;19.94;64.77;102796.50;4960512;28;20183;-81
2021/09/22 08:59:12;;;;;;;16.60;5.40;;;;;;;19.31;66.46;102806.88;4994828;28;20191;-81
2021/09/22 09:01:37;;;;;;;12.27;4.97;;;;;;;19.08;66.92;102804.72;4981736;28;20220;-80
2021/09/22 09:04:19;;;;;;;17.87;5.07;;;;;;;19.23;66.30;102811.09;4967609;28;20203;-81
2021/09/22 09:06:46;;;;;;;12.30;5.40;;;;;;;19.15;67.36;102804.84;4975300;28;20288;-79
2021/09/22 09:09:13;;;;;;;12.77;5.07;;;;;;;19.26;66.38;102795.53;4987084;28;20249;-79
2021/09/22 09:11:43;;;;;;;17.00;5.67;;;;;;;20.28;63.82;102791.75;4992852;28;20220;-81
2021/09/22 09:14:12;;;;;;;15.33;4.97;;;;;;;21.58;59.16;102780.69;4995108;28;20198;-80
2021/09/22 09:16:42;;;;;;;13.27;4.87;;;;;;;21.56;59.27;102778.06;4993439;28;20221;-81
2021/09/22 09:19:21;;;;;;;11.23;4.53;;;;;;;25.21;48.62;102756.44;4990908;28;20653;-81
2021/09/22 09:22:03;;;;;;;11.02;3.70;;;;;;;26.81;45.33;102748.22;5021878;28;20215;-80
2021/09/22 09:24:48;;;;;;;7.80;3.75;;;;;;;28.96;40.85;102746.22;4974018;28;20228;-79
2021/09/22 09:27:19;;;;;;;11.25;4.78;;;;;;;28.61;39.70;102744.47;4989393;28;20220;-81
2021/09/22 09:29:50;;;;;;;11.52;4.85;;;;;;;29.65;39.29;102742.53;4955165;28;20294;-80
2021/09/22 09:32:26;;;;;;;11.18;5.00;;;;;;;30.19;35.76;102750.59;4996263;28;20220;-80
2021/09/22 09:35:04;;;;;;;10.77;4.93;;;;;;;28.50;40.37;102754.41;5010053;28;20195;-80
2021/09/22 09:37:39;;;;;;;9.60;5.07;;;;;;;30.78;36.13;102746.03;5010058;28;20183;-81
2021/09/22 09:40:20;;;;;;;10.43;4.65;;;;;;;32.11;33.63;102740.22;5010048;28;20233;-81
2021/09/22 09:42:47;;;;;;;10.15;5.10;;;;;;;31.02;35.43;102750.53;5011446;28;20175;-80
2021/09/22 09:45:13;;;;;;;8.95;5.13;;;;;;;30.55;37.04;102751.19;4993037;28;20211;-79
2021/09/22 09:47:40;;;;;;;10.63;5.35;;;;;;;30.00;37.81;102746.78;4973706;28;20714;-78
2021/09/22 09:50:20;;;;;;;10.18;5.00;;;;;;;25.67;46.81;102765.59;4962547;28;20678;-79
2021/09/22 09:52:56;;;;;;;14.43;6.25;;;;;;;22.88;53.58;102774.16;4967087;28;20209;-79
2021/09/22 09:55:24;;;;;;;11.07;5.82;;;;;;;22.17;56.08;102777.50;4972347;28;20207;-77
2021/09/22 09:57:51;;;;;;;15.60;6.40;;;;;;;22.15;56.55;102779.22;4954752;28;20201;-79
2021/09/22 10:00:22;;;;;;;16.70;6.67;;;;;;;21.17;59.73;102784.75;4981666;28;20852;-78
2021/09/22 10:02:49;;;;;;;12.80;6.43;;;;;;;20.68;61.20;102785.22;4997646;28;20256;-79
2021/09/22 10:05:14;;;;;;;14.00;6.90;;;;;;;20.79;60.68;102774.03;5011205;28;20203;-80
2021/09/22 10:07:39;;;;;;;11.18;5.53;;;;;;;27.77;42.60;102779.75;4995816;28;20184;-80
2021/09/22 10:10:07;;;;;;;13.20;5.20;;;;;;;30.28;37.42;102766.19;4981446;28;20201;-81
2021/09/22 10:12:33;;;;;;;8.77;4.05;;;;;;;27.21;41.26;102753.66;4975677;28;20228;-80
2021/09/22 10:15:00;;;;;;;13.95;5.18;;;;;;;23.84;50.67;102766.13;4976262;28;20243;-80
2021/09/22 10:17:31;;;;;;;7.55;4.65;;;;;;;22.50;54.27;102773.22;4976124;28;20189;-80
2021/09/22 10:19:59;;;;;;;11.05;4.10;;;;;;;22.85;54.18;102766.31;4993085;28;20688;-79
2021/09/22 10:22:24;;;;;;;9.73;4.45;;;;;;;22.98;53.61;102768.91;4977838;28;20609;-80
2021/09/22 10:24:50;;;;;;;9.70;4.28;;;;;;;24.25;50.38;102748.47;4976296;28;20193;-80
2021/09/22 10:27:18;;;;;;;8.23;4.53;;;;;;;30.33;36.55;102729.88;5007821;28;20244;-81
2021/09/22 10:30:00;;;;;;;8.02;4.57;;;;;;;31.72;34.07;102716.09;5013606;28;20196;-80
2021/09/22 10:32:38;;;;;;;10.93;4.10;;;;;;;33.47;31.84;102720.25;4992664;28;20233;-82
2021/09/22 10:35:40;;;;;;;9.07;4.60;;;;;;;34.81;29.12;102714.53;4976398;28;20184;-79
2021/09/22 10:38:20;;;;;;;8.85;5.03;;;;;;;35.12;28.52;102712.84;4957194;28;20189;-79
2021/09/22 10:40:51;;;;;;;7.70;4.50;;;;;;;35.13;28.55;102713.72;4978221;28;20212;-78
2021/09/22 10:43:16;;;;;;;8.80;4.43;;;;;;;36.41;27.43;102712.72;4960170;28;20196;-79
2021/09/22 10:45:47;;;;;;;7.03;4.10;;;;;;;34.39;28.44;102716.69;4976878;28;20193;-78
2021/09/22 10:48:18;;;;;;;6.57;4.10;;;;;;;35.52;28.30;102711.59;4976751;28;20184;-79
2021/09/22 10:50:46;;;;;;;7.38;3.80;;;;;;;32.05;33.81;102711.31;4967282;28;20792;-81
2021/09/22 10:53:30;;;;;;;10.10;4.30;;;;;;;33.59;31.10;102709.91;4976007;28;20268;-81
2021/09/22 10:56:16;;;;;;;9.73;4.53;;;;;;;27.82;40.45;102730.50;4977810;28;20193;-81
2021/09/22 10:58:56;;;;;;;9.10;4.57;;;;;;;25.60;45.79;102731.56;4991293;28;20181;-82
2021/09/22 11:01:44;;;;;;;8.70;4.68;;;;;;;24.34;48.38;102737.94;4958382;28;20209;-81
2021/09/22 11:04:13;;;;;;;9.90;5.13;;;;;;;23.57;51.35;102743.53;4972971;28;20228;-80
2021/09/22 11:09:21;;;;;;;9.55;4.25;;;;;;;28.17;39.22;102726.16;4995160;28;20200;-80
2021/09/22 11:11:53;;;;;;;10.90;3.95;;;;;;;32.25;31.48;102706.06;5011276;28;20216;-81
2021/09/22 11:14:37;;;;;;;4.93;3.10;;;;;;;32.92;30.01;102705.84;4980450;28;20200;-80
2021/09/22 11:17:08;;;;;;;6.85;3.55;;;;;;;33.96;28.42;102706.38;5009394;28;20275;-80
2021/09/22 11:19:35;;;;;;;7.95;4.03;;;;;;;33.58;29.36;102705.53;4996368;28;20223;-80
2021/09/22 11:22:03;;;;;;;5.57;3.47;;;;;;;26.99;38.67;102725.97;5005523;28;20300;-80
2021/09/22 11:24:31;;;;;;;6.25;3.63;;;;;;;29.32;35.61;102719.69;5008580;28;20200;-81
2021/09/22 11:27:02;;;;;;;6.28;3.72;;;;;;;32.04;32.51;102702.47;4997314;28;20215;-81
2021/09/22 11:29:40;;;;;;;9.30;3.83;;;;;;;28.19;37.71;102711.16;4985309;28;20581;-80
2021/09/22 11:32:22;;;;;;;9.32;3.83;;;;;;;24.01;45.53;102728.56;5006361;28;20317;-81
2021/09/22 11:34:48;;;;;;;8.73;4.10;;;;;;;25.19;45.36;102715.38;5015465;28;20265;-80
2021/09/22 11:37:14;;;;;;;9.50;4.50;;;;;;;24.41;46.75;102719.53;4993287;28;20180;-80
2021/09/22 11:39:43;;;;;;;8.50;3.83;;;;;;;24.91;46.03;102717.41;4979158;28;20215;-81